createdAt,value
2018-09-19T00:02:09.556Z,24.70
2018-09-19T00:04:38.041Z,24.70
2018-09-19T00:07:06.353Z,24.60
2018-09-19T00:09:34.878Z,24.60
2018-09-19T00:12:03.284Z,24.60
2018-09-19T00:14:31.737Z,24.60
2018-09-19T00:17:00.157Z,24.60
2018-09-19T00:19:28.653Z,24.60
2018-09-19T00:21:57.046Z,24.70
2018-09-19T00:24:25.559Z,24.70
2018-09-19T00:26:54.013Z,24.70
2018-09-19T00:29:22.426Z,24.70
2018-09-19T00:31:50.824Z,24.70
2018-09-19T00:34:19.309Z,24.70
2018-09-19T00:36:47.716Z,24.70
2018-09-19T00:39:16.204Z,24.70
2018-09-19T00:41:44.599Z,24.60
2018-09-19T00:44:13.025Z,24.50
2018-09-19T00:46:41.555Z,24.50
2018-09-19T00:49:09.963Z,24.40
2018-09-19T00:51:38.412Z,24.40
2018-09-19T00:54:06.736Z,24.30
2018-09-19T00:56:35.045Z,24.20
2018-09-19T00:59:03.540Z,24.20
2018-09-19T01:01:31.920Z,24.20
2018-09-19T01:04:00.326Z,24.20
2018-09-19T01:06:28.744Z,24.20
2018-09-19T01:08:57.300Z,24.10
2018-09-19T01:11:25.748Z,24.00
2018-09-19T01:13:54.207Z,24.10
2018-09-19T01:16:22.634Z,24.00
2018-09-19T01:18:51.124Z,24.00
2018-09-19T01:21:19.657Z,24.00
2018-09-19T01:23:48.083Z,23.90
2018-09-19T01:26:16.517Z,24.00
2018-09-19T01:28:44.963Z,24.00
2018-09-19T01:31:13.613Z,23.90
2018-09-19T01:33:42.277Z,24.00
2018-09-19T01:36:11.176Z,24.00
2018-09-19T01:38:40.157Z,24.00
2018-09-19T01:41:08.618Z,24.00
2018-09-19T01:43:37.337Z,24.00
2018-09-19T01:46:06.082Z,24.00
2018-09-19T01:48:34.795Z,24.10
2018-09-19T01:51:03.639Z,24.00
2018-09-19T01:53:32.214Z,23.90
2018-09-19T01:56:01.085Z,23.80
2018-09-19T01:58:29.791Z,23.80
2018-09-19T02:00:58.467Z,23.80
2018-09-19T02:03:27.236Z,23.80
2018-09-19T02:05:55.487Z,23.70
2018-09-19T02:08:24.223Z,23.60
2018-09-19T02:10:53.134Z,23.60
2018-09-19T02:13:21.721Z,23.60
2018-09-19T02:15:50.415Z,23.60
2018-09-19T02:18:19.282Z,23.60
2018-09-19T02:20:48.097Z,23.60
2018-09-19T02:23:16.806Z,23.60
2018-09-19T02:25:45.204Z,23.60
2018-09-19T02:28:13.995Z,23.50
2018-09-19T02:30:42.794Z,23.50
2018-09-19T02:33:11.395Z,23.50
2018-09-19T02:35:39.920Z,23.40
2018-09-19T02:38:08.673Z,23.40
2018-09-19T02:40:37.474Z,23.40
2018-09-19T02:43:06.379Z,23.40
2018-09-19T02:45:35.090Z,23.30
2018-09-19T02:48:03.969Z,23.40
2018-09-19T02:50:32.644Z,23.40
2018-09-19T02:53:01.352Z,23.40
2018-09-19T02:55:30.105Z,23.40
2018-09-19T02:57:58.828Z,23.40
2018-09-19T03:00:27.506Z,23.40
2018-09-19T03:02:55.879Z,23.30
2018-09-19T03:05:24.392Z,23.20
2018-09-19T03:07:53.056Z,23.20
2018-09-19T03:10:21.916Z,23.20
2018-09-19T03:12:50.611Z,23.20
2018-09-19T03:15:19.067Z,23.20
2018-09-19T03:17:48.336Z,23.20
2018-09-19T03:20:16.606Z,23.20
2018-09-19T03:22:46.545Z,23.10
2018-09-19T03:25:15.035Z,23.00
2018-09-19T03:27:43.677Z,23.10
2018-09-19T03:30:12.477Z,23.00
2018-09-19T03:32:40.877Z,23.00
2018-09-19T03:35:09.300Z,22.90
2018-09-19T03:37:37.593Z,22.90
2018-09-19T03:40:06.255Z,22.90
2018-09-19T03:42:35.295Z,22.90
2018-09-19T03:45:03.685Z,22.90
2018-09-19T03:47:32.487Z,22.90
2018-09-19T03:50:01.255Z,23.00
2018-09-19T03:52:29.969Z,23.00
2018-09-19T03:54:58.267Z,22.90
2018-09-19T03:57:26.757Z,22.90
2018-09-19T03:59:55.487Z,22.90
2018-09-19T04:02:24.008Z,22.90
2018-09-19T04:04:52.758Z,22.80
2018-09-19T04:07:21.148Z,22.70
2018-09-19T04:09:49.514Z,22.70
2018-09-19T04:12:18.327Z,22.70
2018-09-19T04:14:46.847Z,22.70
2018-09-19T04:17:15.522Z,22.70
2018-09-19T04:19:44.394Z,22.60
2018-09-19T04:22:13.303Z,22.60
2018-09-19T04:24:41.647Z,22.60
2018-09-19T04:27:10.279Z,22.50
2018-09-19T04:29:38.942Z,22.50
2018-09-19T04:32:07.487Z,22.50
2018-09-19T04:34:36.316Z,22.50
2018-09-19T04:37:04.736Z,22.60
2018-09-19T04:39:33.408Z,22.60
2018-09-19T04:42:02.052Z,22.60
2018-09-19T04:44:30.426Z,22.50
2018-09-19T04:46:59.275Z,22.50
2018-09-19T04:49:27.831Z,22.50
2018-09-19T04:51:56.608Z,22.40
2018-09-19T04:54:25.461Z,22.40
2018-09-19T04:56:54.098Z,22.30
2018-09-19T04:59:22.990Z,22.30
2018-09-19T05:01:51.456Z,22.30
2018-09-19T05:04:20.066Z,22.30
2018-09-19T05:06:48.862Z,22.30
2018-09-19T05:09:17.596Z,22.30
2018-09-19T05:11:45.929Z,22.30
2018-09-19T05:14:30.376Z,22.30
2018-09-19T05:16:58.828Z,22.30
2018-09-19T05:19:27.545Z,22.20
2018-09-19T05:21:56.253Z,22.30
2018-09-19T05:24:24.556Z,22.20
2018-09-19T05:26:52.875Z,22.20
2018-09-19T05:29:21.592Z,22.20
2018-09-19T05:31:50.411Z,22.20
2018-09-19T05:34:18.814Z,22.10
2018-09-19T05:36:47.209Z,22.20
2018-09-19T05:39:15.635Z,22.10
2018-09-19T05:41:44.151Z,22.10
2018-09-19T05:44:12.616Z,22.10
2018-09-19T05:46:41.095Z,22.10
2018-09-19T05:49:09.852Z,22.20
2018-09-19T05:51:38.639Z,22.20
2018-09-19T05:54:07.044Z,22.20
2018-09-19T05:56:35.444Z,22.10
2018-09-19T05:59:03.892Z,22.10
2018-09-19T06:01:32.262Z,22.20
2018-09-19T06:04:00.979Z,22.20
2018-09-19T06:06:29.342Z,22.20
2018-09-19T06:08:57.674Z,22.20
2018-09-19T06:11:26.320Z,22.20
2018-09-19T06:13:55.113Z,22.20
2018-09-19T06:16:23.519Z,22.20
2018-09-19T06:18:52.063Z,22.30
2018-09-19T06:21:20.451Z,22.30
2018-09-19T06:23:48.848Z,22.30
2018-09-19T06:26:17.740Z,22.30
2018-09-19T06:28:46.328Z,22.30
2018-09-19T06:31:15.105Z,22.30
2018-09-19T06:33:43.486Z,22.30
2018-09-19T06:36:11.980Z,22.30
2018-09-19T06:38:40.385Z,22.30
2018-09-19T06:41:08.822Z,22.30
2018-09-19T06:43:37.459Z,22.40
2018-09-19T06:46:06.121Z,22.40
2018-09-19T06:48:34.580Z,22.40
2018-09-19T06:51:03.104Z,22.40
2018-09-19T06:53:31.560Z,22.40
2018-09-19T06:55:59.955Z,22.50
2018-09-19T06:58:28.283Z,22.50
2018-09-19T07:00:56.631Z,22.60
2018-09-19T07:03:25.097Z,22.60
2018-09-19T07:05:53.604Z,22.60
2018-09-19T07:08:21.980Z,22.70
2018-09-19T07:10:50.605Z,22.70
2018-09-19T07:13:19.051Z,22.70
2018-09-19T07:15:47.610Z,22.80
2018-09-19T07:18:16.056Z,22.90
2018-09-19T07:20:44.560Z,22.90
2018-09-19T07:23:12.888Z,23.00
2018-09-19T07:25:41.544Z,22.90
2018-09-19T07:28:09.880Z,23.00
2018-09-19T07:30:38.344Z,23.00
2018-09-19T07:33:06.995Z,23.00
2018-09-19T07:35:35.352Z,23.10
2018-09-19T07:38:03.729Z,23.10
2018-09-19T07:40:32.451Z,23.10
2018-09-19T07:43:01.554Z,23.10
2018-09-19T07:45:30.332Z,23.20
2018-09-19T07:47:58.781Z,23.20
2018-09-19T07:50:27.225Z,23.20
2018-09-19T07:52:56.156Z,23.20
2018-09-19T07:55:25.184Z,23.20
2018-09-19T07:57:53.912Z,23.20
2018-09-19T08:00:22.404Z,23.30
2018-09-19T08:02:50.741Z,23.40
2018-09-19T08:05:19.532Z,23.40
2018-09-19T08:07:49.637Z,23.40
2018-09-19T08:10:18.167Z,23.40
2018-09-19T08:12:48.112Z,23.50
2018-09-19T08:15:16.877Z,23.50
2018-09-19T08:17:47.284Z,23.60
2018-09-19T08:20:15.752Z,23.60
2018-09-19T08:22:44.121Z,23.70
2018-09-19T08:25:12.455Z,23.80
2018-09-19T08:27:41.024Z,23.80
2018-09-19T08:30:09.521Z,23.90
2018-09-19T08:32:37.894Z,23.90
2018-09-19T08:35:06.503Z,24.00
2018-09-19T08:37:34.972Z,24.10
2018-09-19T08:40:03.369Z,24.10
2018-09-19T08:42:31.784Z,24.20
2018-09-19T08:45:00.116Z,24.20
2018-09-19T08:47:28.472Z,24.30
2018-09-19T08:49:56.800Z,24.30
2018-09-19T08:52:25.133Z,24.40
2018-09-19T08:54:53.567Z,24.40
2018-09-19T08:57:21.925Z,24.40
2018-09-19T08:59:50.440Z,24.50
2018-09-19T09:02:18.836Z,24.50
2018-09-19T09:04:47.141Z,24.50
2018-09-19T09:07:15.516Z,24.50
2018-09-19T09:09:44.012Z,24.60
2018-09-19T09:12:12.754Z,24.60
2018-09-19T09:15:23.055Z,24.70
2018-09-19T09:17:51.533Z,24.90
2018-09-19T09:20:19.856Z,25.10
2018-09-19T09:22:50.197Z,25.40
2018-09-19T09:25:18.866Z,25.80
2018-09-19T09:27:48.971Z,26.10
2018-09-19T09:30:17.629Z,26.40
2018-09-19T09:32:48.176Z,26.60
2018-09-19T09:35:16.867Z,26.70
2018-09-19T09:37:45.347Z,26.80
2018-09-19T09:40:15.823Z,26.70
2018-09-19T09:42:44.275Z,26.80
2018-09-19T09:45:12.781Z,27.00
2018-09-19T09:47:41.531Z,27.20
2018-09-19T09:50:09.851Z,27.30
2018-09-19T09:52:38.623Z,27.30
2018-09-19T09:55:07.086Z,27.20
2018-09-19T09:57:35.484Z,27.20
2018-09-19T10:00:03.983Z,27.20
2018-09-19T10:02:32.370Z,27.30
2018-09-19T10:05:00.852Z,27.30
2018-09-19T10:07:29.521Z,27.50
2018-09-19T10:09:58.191Z,27.70
2018-09-19T10:12:27.074Z,28.00
2018-09-19T10:15:36.507Z,28.10
2018-09-19T10:18:04.983Z,28.20
2018-09-19T10:20:33.900Z,28.30
2018-09-19T10:23:02.384Z,28.30
2018-09-19T10:25:30.854Z,28.60
2018-09-19T10:27:59.377Z,28.80
2018-09-19T10:30:28.367Z,28.90
2018-09-19T10:32:56.739Z,29.20
2018-09-19T10:35:25.600Z,29.30
2018-09-19T10:37:53.935Z,29.70
2018-09-19T10:40:22.530Z,30.00
2018-09-19T10:42:51.008Z,30.40
2018-09-19T10:45:19.407Z,30.70
2018-09-19T10:47:49.387Z,31.00
2018-09-19T10:50:17.800Z,31.30
2018-09-19T10:52:47.848Z,31.50
2018-09-19T10:55:16.214Z,31.60
2018-09-19T10:57:44.568Z,31.70
2018-09-19T11:00:13.049Z,31.90
2018-09-19T11:02:41.405Z,32.10
2018-09-19T11:05:09.864Z,32.30
2018-09-19T11:07:38.335Z,32.40
2018-09-19T11:10:07.016Z,32.70
2018-09-19T11:12:35.535Z,32.90
2018-09-19T11:15:46.114Z,33.10
2018-09-19T11:18:14.916Z,33.30
2018-09-19T11:20:43.586Z,33.60
2018-09-19T11:23:12.384Z,33.60
2018-09-19T11:25:41.065Z,33.50
2018-09-19T11:28:09.551Z,33.20
2018-09-19T11:30:37.960Z,33.20
2018-09-19T11:33:06.397Z,32.90
2018-09-19T11:35:35.241Z,32.40
2018-09-19T11:38:03.540Z,32.10
2018-09-19T11:40:32.125Z,31.90
2018-09-19T11:43:00.850Z,32.10
2018-09-19T11:45:29.239Z,32.50
2018-09-19T11:47:57.631Z,32.80
2018-09-19T11:50:26.726Z,33.30
2018-09-19T11:52:55.339Z,33.60
2018-09-19T11:55:23.821Z,33.80
2018-09-19T11:57:52.314Z,33.60
2018-09-19T12:00:20.759Z,33.70
2018-09-19T12:02:50.582Z,33.50
2018-09-19T12:05:19.054Z,33.20
2018-09-19T12:07:48.877Z,33.50
2018-09-19T12:10:17.661Z,33.60
2018-09-19T12:12:46.051Z,33.50
2018-09-19T12:15:58.955Z,33.30
2018-09-19T12:18:27.376Z,33.00
2018-09-19T12:20:55.964Z,33.20
2018-09-19T12:23:24.280Z,33.20
2018-09-19T12:25:52.595Z,33.10
2018-09-19T12:28:21.024Z,32.80
2018-09-19T12:30:49.752Z,32.70
2018-09-19T12:33:18.509Z,32.90
2018-09-19T12:35:46.921Z,33.20
2018-09-19T12:38:15.352Z,33.30
2018-09-19T12:40:44.109Z,33.40
2018-09-19T12:43:12.892Z,33.80
2018-09-19T12:45:41.683Z,34.00
2018-09-19T12:48:10.167Z,34.40
2018-09-19T12:50:38.863Z,34.70
2018-09-19T12:53:07.352Z,35.00
2018-09-19T12:55:36.049Z,35.20
2018-09-19T12:58:04.744Z,35.50
2018-09-19T13:00:33.437Z,35.80
2018-09-19T13:03:01.766Z,36.10
2018-09-19T13:05:30.168Z,36.30
2018-09-19T13:07:58.625Z,36.50
2018-09-19T13:10:27.471Z,36.70
2018-09-19T13:12:56.236Z,36.80
2018-09-19T13:16:09.676Z,36.90
2018-09-19T13:18:38.063Z,37.10
2018-09-19T13:21:06.398Z,37.00
2018-09-19T13:23:34.837Z,36.60
2018-09-19T13:26:03.335Z,36.30
2018-09-19T13:28:31.677Z,35.90
2018-09-19T13:31:00.006Z,35.70
2018-09-19T13:33:28.414Z,35.30
2018-09-19T13:35:57.243Z,35.00
2018-09-19T13:38:25.929Z,34.70
2018-09-19T13:40:54.925Z,34.60
2018-09-19T13:43:23.481Z,34.40
2018-09-19T13:45:51.911Z,34.30
2018-09-19T13:48:20.281Z,34.10
2018-09-19T13:50:55.409Z,34.30
2018-09-19T13:53:24.361Z,34.10
2018-09-19T13:55:53.710Z,34.50
2018-09-19T13:58:22.101Z,34.90
2018-09-19T14:00:50.939Z,35.20
2018-09-19T14:03:19.655Z,35.60
2018-09-19T14:05:48.367Z,35.90
2018-09-19T14:08:16.763Z,36.20
2018-09-19T14:10:45.182Z,36.30
2018-09-19T14:13:13.731Z,36.50
2018-09-19T14:16:26.970Z,36.60
2018-09-19T14:18:55.710Z,36.70
2018-09-19T14:21:24.123Z,36.40
2018-09-19T14:23:52.672Z,36.40
2018-09-19T14:26:21.237Z,36.60
2018-09-19T14:28:49.981Z,36.30
2018-09-19T14:31:18.394Z,36.20
2018-09-19T14:33:46.753Z,35.80
2018-09-19T14:36:15.144Z,35.40
2018-09-19T14:38:43.688Z,35.60
2018-09-19T14:41:12.529Z,35.90
2018-09-19T14:43:40.816Z,36.20
2018-09-19T14:46:09.208Z,36.00
2018-09-19T14:48:37.644Z,35.60
2018-09-19T14:51:06.100Z,35.20
2018-09-19T14:53:34.680Z,35.00
2018-09-19T14:56:02.915Z,35.00
2018-09-19T14:58:31.848Z,35.20
2018-09-19T15:01:00.289Z,35.50
2018-09-19T15:03:28.680Z,35.70
2018-09-19T15:05:57.076Z,35.70
2018-09-19T15:08:25.644Z,35.60
2018-09-19T15:10:55.007Z,35.50
2018-09-19T15:13:23.468Z,35.60
2018-09-19T15:16:39.951Z,35.60
2018-09-19T15:19:08.416Z,35.60
2018-09-19T15:21:36.835Z,35.60
2018-09-19T15:24:05.281Z,35.70
2018-09-19T15:26:33.629Z,35.80
2018-09-19T15:29:02.584Z,35.80
2018-09-19T15:31:31.051Z,35.80
2018-09-19T15:33:59.708Z,35.70
2018-09-19T15:36:28.491Z,35.60
2018-09-19T15:38:57.010Z,35.50
2018-09-19T15:41:25.424Z,35.30
2018-09-19T15:43:53.809Z,35.10
2018-09-19T15:46:22.271Z,35.10
2018-09-19T15:48:50.826Z,35.00
2018-09-19T15:51:19.601Z,34.90
2018-09-19T15:53:48.031Z,34.70
2018-09-19T15:56:16.479Z,34.50
2018-09-19T15:58:44.940Z,34.50
2018-09-19T16:01:13.426Z,34.40
2018-09-19T16:03:41.877Z,34.40
2018-09-19T16:06:10.246Z,34.30
2018-09-19T16:08:39.032Z,34.10
2018-09-19T16:11:07.778Z,34.10
2018-09-19T16:13:36.049Z,33.90
2018-09-19T16:16:50.130Z,33.80
2018-09-19T16:19:18.788Z,33.60
2018-09-19T16:21:47.478Z,33.50
2018-09-19T16:24:16.017Z,33.40
2018-09-19T16:26:44.410Z,33.30
2018-09-19T16:29:12.813Z,33.20
2018-09-19T16:31:41.300Z,33.00
2018-09-19T16:34:09.763Z,32.90
2018-09-19T16:36:38.481Z,32.90
2018-09-19T16:39:09.692Z,32.80
2018-09-19T16:41:38.028Z,32.60
2018-09-19T16:44:06.734Z,32.60
2018-09-19T16:46:35.799Z,32.50
2018-09-19T16:49:04.583Z,32.40
2018-09-19T16:51:33.166Z,32.30
2018-09-19T16:54:01.664Z,32.20
2018-09-19T16:56:30.167Z,32.10
2018-09-19T16:58:58.571Z,32.00
2018-09-19T17:01:27.548Z,32.00
2018-09-19T17:03:56.100Z,31.90
2018-09-19T17:06:24.553Z,31.80
2018-09-19T17:08:52.945Z,31.80
2018-09-19T17:11:24.316Z,31.70
2018-09-19T17:13:52.905Z,31.60
2018-09-19T17:17:01.193Z,31.60
2018-09-19T17:19:29.665Z,31.40
2018-09-19T17:21:58.116Z,31.30
2018-09-19T17:24:26.557Z,31.30
2018-09-19T17:26:55.005Z,31.20
2018-09-19T17:29:23.447Z,31.10
2018-09-19T17:31:52.045Z,31.10
2018-09-19T17:34:20.385Z,31.00
2018-09-19T17:36:48.756Z,30.90
2018-09-19T17:39:17.152Z,30.80
2018-09-19T17:41:45.778Z,30.80
2018-09-19T17:44:14.240Z,30.70
2018-09-19T17:46:42.700Z,30.70
2018-09-19T17:49:11.427Z,30.50
2018-09-19T17:51:39.791Z,30.40
2018-09-19T17:54:08.152Z,30.40
2018-09-19T17:56:36.811Z,30.30
2018-09-19T17:59:05.276Z,30.20
2018-09-19T18:01:33.713Z,30.20
2018-09-19T18:04:02.155Z,30.10
2018-09-19T18:06:30.541Z,30.00
2018-09-19T18:08:59.025Z,30.00
2018-09-19T18:11:28.183Z,30.00
2018-09-19T18:13:56.571Z,29.90
2018-09-19T18:17:06.892Z,29.80
2018-09-19T18:19:35.356Z,29.80
2018-09-19T18:22:03.801Z,29.70
2018-09-19T18:24:32.184Z,29.60
2018-09-19T18:27:00.557Z,29.60
2018-09-19T18:29:29.009Z,29.60
2018-09-19T18:31:57.405Z,29.60
2018-09-19T18:34:25.811Z,29.40
2018-09-19T18:36:54.436Z,29.40
2018-09-19T18:39:23.011Z,29.30
2018-09-19T18:41:51.488Z,29.30
2018-09-19T18:44:20.078Z,29.30
2018-09-19T18:46:48.635Z,29.20
2018-09-19T18:49:21.601Z,29.10
2018-09-19T18:51:50.260Z,29.10
2018-09-19T18:54:20.526Z,29.00
2018-09-19T18:56:49.088Z,29.00
2018-09-19T18:59:17.628Z,28.90
2018-09-19T19:01:46.029Z,28.90
2018-09-19T19:04:14.561Z,28.90
2018-09-19T19:06:43.100Z,28.80
2018-09-19T19:09:12.265Z,28.80
2018-09-19T19:11:40.805Z,28.80
2018-09-19T19:14:09.264Z,28.70
2018-09-19T19:17:12.265Z,28.70
2018-09-19T19:19:40.737Z,28.60
2018-09-19T19:22:09.224Z,28.60
2018-09-19T19:24:37.690Z,28.50
2018-09-19T19:27:06.164Z,28.50
2018-09-19T19:29:34.464Z,28.40
2018-09-19T19:32:02.883Z,28.40
2018-09-19T19:34:31.252Z,28.40
2018-09-19T19:36:59.657Z,28.40
2018-09-19T19:39:27.999Z,28.30
2018-09-19T19:41:56.447Z,28.40
2018-09-19T19:44:25.033Z,28.30
2018-09-19T19:46:53.535Z,28.30
2018-09-19T19:49:22.016Z,28.20
2018-09-19T19:51:50.428Z,28.20
2018-09-19T19:54:18.917Z,28.20
2018-09-19T19:56:47.300Z,28.20
2018-09-19T19:59:15.822Z,28.10
2018-09-19T20:01:44.268Z,28.10
2018-09-19T20:04:12.691Z,28.00
2018-09-19T20:06:41.027Z,28.00
2018-09-19T20:09:09.764Z,28.00
2018-09-19T20:11:38.499Z,28.00
2018-09-19T20:14:07.163Z,28.00
2018-09-19T20:20:15.696Z,27.90
2018-09-19T20:22:44.096Z,27.90
2018-09-19T20:25:12.500Z,27.90
2018-09-19T20:28:17.758Z,27.80
2018-09-19T20:30:46.211Z,27.70
2018-09-19T20:33:14.589Z,27.70
2018-09-19T20:35:43.081Z,27.70
2018-09-19T20:38:11.529Z,27.70
2018-09-19T20:40:40.021Z,27.60
2018-09-19T20:43:08.638Z,27.60
2018-09-19T20:45:37.017Z,27.50
2018-09-19T20:48:05.468Z,27.50
2018-09-19T20:50:33.948Z,27.50
2018-09-19T20:53:02.400Z,27.40
2018-09-19T20:55:30.857Z,27.40
2018-09-19T20:57:59.184Z,27.30
2018-09-19T21:00:27.440Z,27.40
2018-09-19T21:02:55.875Z,27.30
2018-09-19T21:05:24.389Z,27.30
2018-09-19T21:07:53.097Z,27.20
2018-09-19T21:10:22.155Z,27.20
2018-09-19T21:12:52.268Z,27.10
2018-09-19T21:15:47.583Z,27.10
2018-09-19T21:18:15.974Z,27.00
2018-09-19T21:20:44.746Z,27.00
2018-09-19T21:23:13.153Z,27.00
2018-09-19T21:25:41.853Z,26.90
2018-09-19T21:28:11.024Z,26.80
2018-09-19T21:30:39.700Z,26.90
2018-09-19T21:33:08.140Z,26.80
2018-09-19T21:35:36.828Z,26.80
2018-09-19T21:38:05.284Z,26.80
2018-09-19T21:40:33.781Z,26.80
2018-09-19T21:43:02.176Z,26.80
2018-09-19T21:45:30.631Z,26.70
2018-09-19T21:47:59.081Z,26.60
2018-09-19T21:50:27.548Z,26.60
2018-09-19T21:52:55.999Z,26.60
2018-09-19T21:55:25.523Z,26.60
2018-09-19T21:57:53.909Z,26.60
2018-09-19T22:00:22.541Z,26.50
2018-09-19T22:02:52.444Z,26.50
2018-09-19T22:05:20.775Z,26.50
2018-09-19T22:07:50.783Z,26.50
2018-09-19T22:10:19.116Z,26.50
2018-09-19T22:12:47.562Z,26.50
2018-09-19T22:15:15.841Z,26.50
2018-09-19T22:17:44.392Z,26.30
2018-09-19T22:20:12.813Z,26.40
2018-09-19T22:22:41.220Z,26.30
2018-09-19T22:25:09.614Z,26.30
2018-09-19T22:27:37.974Z,26.30
2018-09-19T22:30:06.383Z,26.20
2018-09-19T22:32:34.849Z,26.20
2018-09-19T22:35:03.251Z,26.30
2018-09-19T22:37:31.684Z,26.30
2018-09-19T22:40:00.189Z,26.30
2018-09-19T22:42:28.697Z,26.20
2018-09-19T22:44:57.153Z,26.20
2018-09-19T22:47:25.501Z,26.20
2018-09-19T22:49:53.987Z,26.10
2018-09-19T22:52:22.399Z,26.10
2018-09-19T22:54:50.670Z,26.10
2018-09-19T22:57:19.045Z,26.00
2018-09-19T22:59:47.448Z,26.00
2018-09-19T23:02:15.866Z,26.00
2018-09-19T23:04:44.186Z,26.00
2018-09-19T23:07:12.562Z,25.90
2018-09-19T23:09:41.064Z,25.90
2018-09-19T23:12:09.388Z,25.90
2018-09-19T23:14:37.833Z,25.90
2018-09-19T23:17:06.535Z,25.90
2018-09-19T23:19:34.836Z,25.90
2018-09-19T23:22:03.281Z,25.90
2018-09-19T23:24:31.780Z,25.80
2018-09-19T23:27:00.231Z,25.80
2018-09-19T23:29:28.639Z,25.80
2018-09-19T23:31:57.033Z,25.80
2018-09-19T23:34:25.464Z,25.80
2018-09-19T23:36:53.892Z,25.80
2018-09-19T23:39:22.306Z,25.70
2018-09-19T23:41:50.696Z,25.60
2018-09-19T23:44:19.081Z,25.60
2018-09-19T23:46:47.530Z,25.50
2018-09-19T23:49:15.916Z,25.50
2018-09-19T23:51:44.393Z,25.50
2018-09-19T23:54:12.696Z,25.50
2018-09-19T23:56:40.984Z,25.40
2018-09-19T23:59:09.443Z,25.40
